createdAt,value
2023-01-05T00:00:51.844Z,11.27
2023-01-05T00:03:18.504Z,10.43
2023-01-05T00:05:45.109Z,9.00
2023-01-05T00:08:12.234Z,11.00
2023-01-05T00:10:57.719Z,8.63
2023-01-05T00:13:47.532Z,11.53
2023-01-05T00:16:33.017Z,11.80
2023-01-05T00:19:18.298Z,10.70
2023-01-05T00:22:03.648Z,8.60
2023-01-05T00:24:30.355Z,9.83
2023-01-05T00:26:56.960Z,9.97
2023-01-05T00:29:23.593Z,8.40
2023-01-05T00:31:50.220Z,7.93
2023-01-05T00:34:16.835Z,10.37
2023-01-05T00:36:43.429Z,10.97
2023-01-05T00:39:10.012Z,8.47
2023-01-05T00:41:36.609Z,8.63
2023-01-05T00:44:03.202Z,10.00
2023-01-05T00:46:29.807Z,10.10
2023-01-05T00:48:56.468Z,10.57
2023-01-05T00:51:23.080Z,8.63
2023-01-05T00:53:49.700Z,7.77
2023-01-05T00:56:16.307Z,13.97
2023-01-05T00:58:42.902Z,9.70
2023-01-05T01:01:12.863Z,10.77
2023-01-05T01:03:39.749Z,9.50
2023-01-05T01:06:06.542Z,9.60
2023-01-05T01:08:33.182Z,9.37
2023-01-05T01:11:06.835Z,8.50
2023-01-05T01:13:33.438Z,8.30
2023-01-05T01:16:06.804Z,8.60
2023-01-05T01:18:33.477Z,7.30
2023-01-05T01:21:00.102Z,9.23
2023-01-05T01:23:27.021Z,7.57
2023-01-05T01:25:53.663Z,9.40
2023-01-05T01:28:20.275Z,8.37
2023-01-05T01:30:46.858Z,7.77
2023-01-05T01:33:13.471Z,7.53
2023-01-05T01:35:40.055Z,9.67
2023-01-05T01:38:06.649Z,8.70
2023-01-05T01:40:41.485Z,8.27
2023-01-05T01:43:19.178Z,8.60
2023-01-05T01:45:45.822Z,10.87
2023-01-05T01:48:14.561Z,7.53
2023-01-05T01:50:43.888Z,7.63
2023-01-05T01:53:31.770Z,8.67
2023-01-05T01:56:00.367Z,9.53
2023-01-05T01:58:27.752Z,9.20
2023-01-05T02:00:54.480Z,8.73
2023-01-05T02:03:21.122Z,10.20
2023-01-05T02:05:47.724Z,7.70
2023-01-05T02:08:15.350Z,8.27
2023-01-05T02:11:05.794Z,8.10
2023-01-05T02:13:54.016Z,7.83
2023-01-05T02:16:37.621Z,7.90
2023-01-05T02:19:44.554Z,8.17
2023-01-05T02:22:44.796Z,9.27
2023-01-05T02:25:43.721Z,10.13
2023-01-05T02:28:28.791Z,6.37
2023-01-05T02:31:08.764Z,8.70
2023-01-05T02:34:07.401Z,6.87
2023-01-05T02:36:40.398Z,8.23
2023-01-05T02:39:28.223Z,7.10
2023-01-05T02:42:22.675Z,6.70
2023-01-05T02:44:49.502Z,7.37
2023-01-05T02:47:25.121Z,8.00
2023-01-05T02:49:52.753Z,7.83
2023-01-05T02:52:19.407Z,6.67
2023-01-05T02:54:51.798Z,7.90
2023-01-05T02:57:20.377Z,8.17
2023-01-05T02:59:53.348Z,7.30
2023-01-05T03:02:22.393Z,8.67
2023-01-05T03:04:51.238Z,5.50
2023-01-05T03:07:21.764Z,6.93
2023-01-05T03:09:48.362Z,7.57
2023-01-05T03:12:51.609Z,9.10
2023-01-05T03:15:26.767Z,8.60
2023-01-05T03:17:58.999Z,6.50
2023-01-05T03:20:29.678Z,8.70
2023-01-05T03:23:15.306Z,6.87
2023-01-05T03:26:00.389Z,6.90
2023-01-05T03:28:49.083Z,5.93
2023-01-05T03:31:38.807Z,11.13
2023-01-05T03:34:50.807Z,7.43
2023-01-05T03:37:18.906Z,6.70
2023-01-05T03:39:46.089Z,6.80
2023-01-05T03:42:14.131Z,7.77
2023-01-05T03:44:41.838Z,7.27
2023-01-05T03:47:08.453Z,7.50
2023-01-05T03:49:35.086Z,6.70
2023-01-05T03:52:01.707Z,6.17
2023-01-05T03:54:28.303Z,8.03
2023-01-05T03:56:54.893Z,6.13
2023-01-05T03:59:21.498Z,6.10
2023-01-05T04:01:48.174Z,6.30
2023-01-05T04:04:14.842Z,7.10
2023-01-05T04:06:41.435Z,7.30
2023-01-05T04:09:08.044Z,5.90
2023-01-05T04:11:34.648Z,9.60
2023-01-05T04:14:01.479Z,7.90
2023-01-05T04:16:28.776Z,6.60
2023-01-05T04:18:55.503Z,9.73
2023-01-05T04:21:22.134Z,6.80
2023-01-05T04:23:48.773Z,6.07
2023-01-05T04:26:15.373Z,8.57
2023-01-05T04:28:41.986Z,8.37
2023-01-05T04:31:08.627Z,7.27
2023-01-05T04:33:36.324Z,7.37
2023-01-05T04:36:02.950Z,7.60
2023-01-05T04:38:29.541Z,7.00
2023-01-05T04:40:56.156Z,6.40
2023-01-05T04:43:23.075Z,5.97
2023-01-05T04:45:49.806Z,5.10
2023-01-05T04:48:16.450Z,6.93
2023-01-05T04:50:43.270Z,5.33
2023-01-05T04:53:10.055Z,7.33
2023-01-05T04:55:36.674Z,7.97
2023-01-05T04:58:08.315Z,6.53
2023-01-05T05:00:38.244Z,7.60
2023-01-05T05:03:04.921Z,6.30
2023-01-05T05:05:31.741Z,7.33
2023-01-05T05:07:58.374Z,8.13
2023-01-05T05:10:25.000Z,7.07
2023-01-05T05:12:51.592Z,10.43
2023-01-05T05:15:18.312Z,6.17
2023-01-05T05:17:44.922Z,5.80
2023-01-05T05:20:12.050Z,6.63
2023-01-05T05:22:38.662Z,7.43
2023-01-05T05:25:05.838Z,6.80
2023-01-05T05:27:32.421Z,6.73
2023-01-05T05:29:59.017Z,5.83
2023-01-05T05:32:25.615Z,6.53
2023-01-05T05:34:52.209Z,5.93
2023-01-05T05:37:18.789Z,6.53
2023-01-05T05:39:45.418Z,6.43
2023-01-05T05:42:12.144Z,6.17
2023-01-05T05:44:39.341Z,6.00
2023-01-05T05:47:06.004Z,5.80
2023-01-05T05:49:32.646Z,5.40
2023-01-05T05:51:59.284Z,7.03
2023-01-05T05:54:25.887Z,5.97
2023-01-05T05:56:52.518Z,5.33
2023-01-05T05:59:19.191Z,6.83
2023-01-05T06:01:45.883Z,6.30
2023-01-05T06:04:12.644Z,5.50
2023-01-05T06:06:39.820Z,4.53
2023-01-05T06:09:06.573Z,6.17
2023-01-05T06:11:33.424Z,5.83
2023-01-05T06:14:00.181Z,5.30
2023-01-05T06:16:26.847Z,5.80
2023-01-05T06:18:53.469Z,6.63
2023-01-05T06:21:21.401Z,5.83
2023-01-05T06:23:48.179Z,6.20
2023-01-05T06:26:14.814Z,7.27
2023-01-05T06:28:41.411Z,7.27
2023-01-05T06:31:08.091Z,7.03
2023-01-05T06:33:34.711Z,6.07
2023-01-05T06:36:01.365Z,8.43
2023-01-05T06:38:28.057Z,5.17
2023-01-05T06:40:54.750Z,6.50
2023-01-05T06:43:21.495Z,7.27
2023-01-05T06:45:48.215Z,14.23
2023-01-05T06:48:14.837Z,11.80
2023-01-05T06:50:41.468Z,12.17
2023-01-05T06:53:08.093Z,8.13
2023-01-05T06:55:34.703Z,8.73
2023-01-05T06:58:01.577Z,8.10
2023-01-05T07:00:28.552Z,5.03
2023-01-05T07:02:55.208Z,5.30
2023-01-05T07:05:23.205Z,10.77
2023-01-05T07:07:50.136Z,10.23
2023-01-05T07:10:16.806Z,9.20
2023-01-05T07:12:43.401Z,7.80
2023-01-05T07:15:10.302Z,7.03
2023-01-05T07:17:36.907Z,9.63
2023-01-05T07:20:05.042Z,11.23
2023-01-05T07:22:31.731Z,12.43
2023-01-05T07:24:58.857Z,6.63
2023-01-05T07:27:25.477Z,16.00
2023-01-05T07:29:52.075Z,13.83
2023-01-05T07:32:18.819Z,17.50
2023-01-05T07:34:54.970Z,11.17
2023-01-05T07:37:24.511Z,16.90
2023-01-05T07:39:51.209Z,9.53
2023-01-05T07:42:17.806Z,11.60
2023-01-05T07:44:45.251Z,9.30
2023-01-05T07:47:11.972Z,7.23
2023-01-05T07:49:38.645Z,13.37
2023-01-05T07:52:05.256Z,14.00
2023-01-05T07:54:31.843Z,9.57
2023-01-05T07:56:58.463Z,14.70
2023-01-05T07:59:25.109Z,17.27
2023-01-05T08:01:51.824Z,15.30
2023-01-05T08:04:18.485Z,18.00
2023-01-05T08:06:45.116Z,14.17
2023-01-05T08:09:30.002Z,12.50
2023-01-05T08:11:56.608Z,16.40
2023-01-05T08:14:23.198Z,17.57
2023-01-05T08:16:49.975Z,14.33
2023-01-05T08:19:16.611Z,18.30
2023-01-05T08:21:43.210Z,18.60
2023-01-05T08:24:09.805Z,17.17
2023-01-05T08:26:36.458Z,13.20
2023-01-05T08:29:03.123Z,19.93
2023-01-05T08:31:30.602Z,19.13
2023-01-05T08:33:59.727Z,11.87
2023-01-05T08:36:26.641Z,19.43
2023-01-05T08:38:53.780Z,15.97
2023-01-05T08:41:22.513Z,20.43
2023-01-05T08:43:53.023Z,11.70
2023-01-05T08:46:20.633Z,19.40
2023-01-05T08:48:51.191Z,15.30
2023-01-05T08:51:17.939Z,11.73
2023-01-05T08:53:44.640Z,15.17
2023-01-05T08:56:11.320Z,12.93
2023-01-05T08:58:38.564Z,14.93
2023-01-05T09:01:09.301Z,12.77
2023-01-05T09:03:36.027Z,15.80
2023-01-05T09:06:03.428Z,13.77
2023-01-05T09:08:30.910Z,13.87
2023-01-05T09:11:06.958Z,12.67
2023-01-05T09:13:33.812Z,15.50
2023-01-05T09:16:11.217Z,17.13
2023-01-05T09:18:38.349Z,12.07
2023-01-05T09:21:06.157Z,11.47
2023-01-05T09:23:33.219Z,17.60
2023-01-05T09:25:59.844Z,14.97
2023-01-05T09:28:26.561Z,8.37
2023-01-05T09:30:53.219Z,11.50
2023-01-05T09:33:19.866Z,14.53
2023-01-05T09:35:56.413Z,14.17
2023-01-05T09:38:23.565Z,11.50
2023-01-05T09:40:51.287Z,16.50
2023-01-05T09:43:27.373Z,13.67
2023-01-05T09:45:54.099Z,10.53
2023-01-05T09:48:20.740Z,11.20
2023-01-05T09:50:48.321Z,13.30
2023-01-05T09:53:15.670Z,11.53
2023-01-05T09:55:42.584Z,9.63
2023-01-05T09:58:17.572Z,21.07
2023-01-05T10:00:45.953Z,36.43
2023-01-05T10:03:53.202Z,25.60
2023-01-05T10:06:16.069Z,34.33
2023-01-05T10:08:46.997Z,28.33
2023-01-05T10:12:02.029Z,35.47
2023-01-05T10:14:30.029Z,38.33
2023-01-05T10:17:30.184Z,28.80
2023-01-05T10:19:43.247Z,32.40
2023-01-05T10:22:26.856Z,35.77
2023-01-05T10:25:08.606Z,36.23
2023-01-05T10:27:42.037Z,36.23
2023-01-05T10:30:25.924Z,52.33
2023-01-05T10:33:25.506Z,35.53
2023-01-05T10:36:01.905Z,42.10
2023-01-05T10:38:55.148Z,37.13
2023-01-05T10:41:36.926Z,33.07
2023-01-05T10:44:50.345Z,30.27
2023-01-05T10:47:16.964Z,30.00
2023-01-05T10:49:45.106Z,21.93
2023-01-05T10:52:14.329Z,27.27
2023-01-05T10:54:44.532Z,22.77
2023-01-05T10:57:36.509Z,29.93
2023-01-05T11:00:12.527Z,26.03
2023-01-05T11:02:48.093Z,30.77
2023-01-05T11:05:19.078Z,16.67
2023-01-05T11:08:18.381Z,21.13
2023-01-05T11:10:53.132Z,27.37
2023-01-05T11:13:22.855Z,15.80
2023-01-05T11:15:57.358Z,22.03
2023-01-05T11:18:30.611Z,16.77
2023-01-05T11:21:07.892Z,20.77
2023-01-05T11:23:48.508Z,19.53
2023-01-05T11:26:18.089Z,18.47
2023-01-05T11:29:02.847Z,16.33
2023-01-05T11:31:35.437Z,14.50
2023-01-05T11:34:28.548Z,21.40
2023-01-05T11:37:08.362Z,15.73
2023-01-05T11:39:37.777Z,19.80
2023-01-05T11:42:17.438Z,17.10
2023-01-05T11:44:55.780Z,11.50
2023-01-05T11:47:45.863Z,17.37
2023-01-05T11:50:47.604Z,20.33
2023-01-05T11:53:31.842Z,13.90
2023-01-05T11:56:01.410Z,13.17
2023-01-05T11:58:44.190Z,15.07
2023-01-05T12:01:27.280Z,11.40
2023-01-05T12:04:08.123Z,13.97
2023-01-05T12:06:34.711Z,13.80
2023-01-05T12:09:06.865Z,8.80
2023-01-05T12:11:44.137Z,12.40
2023-01-05T12:14:30.480Z,14.63
2023-01-05T12:16:57.150Z,13.33
2023-01-05T12:19:33.634Z,12.07
2023-01-05T12:22:21.225Z,16.37
2023-01-05T12:25:06.555Z,14.10
2023-01-05T12:28:00.423Z,15.67
2023-01-05T12:34:05.042Z,18.87
2023-01-05T12:36:45.765Z,20.53
2023-01-05T12:39:35.623Z,25.70
2023-01-05T12:42:27.283Z,21.57
2023-01-05T12:45:03.085Z,20.47
2023-01-05T12:47:48.683Z,15.83
2023-01-05T12:50:38.687Z,21.27
2023-01-05T12:53:29.486Z,18.67
2023-01-05T12:55:57.355Z,18.07
2023-01-05T12:58:43.275Z,15.90
2023-01-05T13:01:25.774Z,18.03
2023-01-05T13:04:04.141Z,20.07
2023-01-05T13:06:35.434Z,13.50
2023-01-05T13:09:21.728Z,18.13
2023-01-05T13:12:08.038Z,20.80
2023-01-05T13:14:35.946Z,20.43
2023-01-05T13:17:23.144Z,19.33
2023-01-05T13:20:02.239Z,19.23
2023-01-05T13:22:34.162Z,19.73
2023-01-05T13:25:05.581Z,24.57
2023-01-05T13:27:32.728Z,27.70
2023-01-05T13:29:59.612Z,19.70
2023-01-05T13:32:53.847Z,16.97
2023-01-05T13:35:58.157Z,15.43
2023-01-05T13:38:59.874Z,15.97
2023-01-05T13:41:41.249Z,17.47
2023-01-05T13:44:20.522Z,21.10
2023-01-05T13:47:15.789Z,29.97
2023-01-05T13:49:59.192Z,30.80
2023-01-05T13:53:03.322Z,37.13
2023-01-05T13:55:29.929Z,29.60
2023-01-05T13:57:56.586Z,24.77
2023-01-05T14:00:30.845Z,28.43
2023-01-05T14:03:09.693Z,25.47
2023-01-05T14:05:59.655Z,22.50
2023-01-05T14:08:34.398Z,25.77
2023-01-05T14:11:14.458Z,25.50
2023-01-05T14:14:04.738Z,28.60
2023-01-05T14:16:34.834Z,27.97
2023-01-05T14:19:32.881Z,23.60
2023-01-05T14:22:23.645Z,21.40
2023-01-05T14:24:50.303Z,20.53
2023-01-05T14:27:21.153Z,20.23
2023-01-05T14:29:53.912Z,24.87
2023-01-05T14:32:26.167Z,25.73
2023-01-05T14:34:57.881Z,23.50
2023-01-05T14:37:39.966Z,21.73
2023-01-05T14:40:20.664Z,30.73
2023-01-05T14:42:47.689Z,25.93
2023-01-05T14:45:31.479Z,32.00
2023-01-05T14:47:59.674Z,23.03
2023-01-05T14:50:42.508Z,24.27
2023-01-05T14:53:22.047Z,23.93
2023-01-05T14:55:51.407Z,23.30
2023-01-05T14:58:38.212Z,29.47
2023-01-05T15:01:18.749Z,29.90
2023-01-05T15:04:07.963Z,30.10
2023-01-05T15:06:55.193Z,24.27
2023-01-05T15:09:48.398Z,20.67
2023-01-05T15:12:24.443Z,28.00
2023-01-05T15:15:16.319Z,22.20
2023-01-05T15:17:59.113Z,24.83
2023-01-05T15:20:44.407Z,20.30
2023-01-05T15:23:45.886Z,22.83
2023-01-05T15:26:47.084Z,32.07
2023-01-05T15:29:28.857Z,22.63
2023-01-05T15:31:57.528Z,25.37
2023-01-05T15:34:29.199Z,25.33
2023-01-05T15:37:05.300Z,21.37
2023-01-05T15:39:46.453Z,22.70
2023-01-05T15:42:19.617Z,25.13
2023-01-05T15:44:47.454Z,22.73
2023-01-05T15:47:14.058Z,24.97
2023-01-05T15:49:40.771Z,25.87
2023-01-05T15:52:20.661Z,20.23
2023-01-05T15:55:17.094Z,24.33
2023-01-05T15:57:51.299Z,18.23
2023-01-05T16:00:23.861Z,22.87
2023-01-05T16:02:50.768Z,23.70
2023-01-05T16:05:22.461Z,21.57
2023-01-05T16:07:54.291Z,19.07
2023-01-05T16:10:42.560Z,19.27
2023-01-05T16:13:15.595Z,19.23
2023-01-05T16:15:42.366Z,23.20
2023-01-05T16:18:13.285Z,19.87
2023-01-05T16:20:41.099Z,19.00
2023-01-05T16:23:12.189Z,19.93
2023-01-05T16:25:43.839Z,20.43
2023-01-05T16:28:17.736Z,28.63
2023-01-05T16:30:45.440Z,25.17
2023-01-05T16:33:34.939Z,21.03
2023-01-05T16:36:09.059Z,26.30
2023-01-05T16:38:35.866Z,15.03
2023-01-05T16:41:13.373Z,21.27
2023-01-05T16:43:39.913Z,19.03
2023-01-05T16:46:23.906Z,16.53
2023-01-05T16:48:53.270Z,14.90
2023-01-05T16:51:24.016Z,14.57
2023-01-05T16:53:54.808Z,19.97
2023-01-05T16:56:22.399Z,18.43
2023-01-05T16:58:49.213Z,16.17
2023-01-05T17:01:35.798Z,16.27
2023-01-05T17:04:12.642Z,16.00
2023-01-05T17:06:39.489Z,12.03
2023-01-05T17:09:20.201Z,16.43
2023-01-05T17:11:46.844Z,15.90
2023-01-05T17:14:13.691Z,16.03
2023-01-05T17:16:40.498Z,12.07
2023-01-05T17:19:14.281Z,12.30
2023-01-05T17:21:46.053Z,13.53
2023-01-05T17:24:13.011Z,13.23
2023-01-05T17:26:42.774Z,12.67
2023-01-05T17:29:22.143Z,11.70
2023-01-05T17:31:48.826Z,17.00
2023-01-05T17:34:15.626Z,12.90
2023-01-05T17:36:42.342Z,13.63
2023-01-05T17:39:10.903Z,15.70
2023-01-05T17:41:37.505Z,11.03
2023-01-05T17:44:04.163Z,11.50
2023-01-05T17:46:32.471Z,15.80
2023-01-05T17:49:00.490Z,10.17
2023-01-05T17:51:28.167Z,9.40
2023-01-05T17:53:58.242Z,12.07
2023-01-05T17:56:25.214Z,10.67
2023-01-05T17:58:51.916Z,12.67
2023-01-05T18:01:18.745Z,11.80
2023-01-05T18:03:45.374Z,9.30
2023-01-05T18:06:12.105Z,11.90
2023-01-05T18:08:38.716Z,9.80
2023-01-05T18:11:05.914Z,10.23
2023-01-05T18:13:33.205Z,9.03
2023-01-05T18:15:59.942Z,13.23
2023-01-05T18:18:27.785Z,9.40
2023-01-05T18:20:54.395Z,8.43
2023-01-05T18:23:21.016Z,8.90
2023-01-05T18:25:47.658Z,15.53
2023-01-05T18:28:14.309Z,12.60
2023-01-05T18:30:41.864Z,7.23
2023-01-05T18:33:08.496Z,10.37
2023-01-05T18:35:36.141Z,7.70
2023-01-05T18:38:04.973Z,8.80
2023-01-05T18:40:31.603Z,9.70
2023-01-05T18:42:58.212Z,8.37
2023-01-05T18:45:38.415Z,7.73
2023-01-05T18:48:05.841Z,8.93
2023-01-05T18:50:32.432Z,9.27
2023-01-05T18:52:59.034Z,7.93
2023-01-05T18:55:25.614Z,9.80
2023-01-05T18:57:52.240Z,7.53
2023-01-05T19:00:18.920Z,11.00
2023-01-05T19:02:45.523Z,7.03
2023-01-05T19:05:12.134Z,9.93
2023-01-05T19:07:39.750Z,6.93
2023-01-05T19:10:06.794Z,8.93
2023-01-05T19:12:33.427Z,8.77
2023-01-05T19:15:00.033Z,10.43
2023-01-05T19:17:26.634Z,6.63
2023-01-05T19:19:54.898Z,6.70
2023-01-05T19:22:21.518Z,9.33
2023-01-05T19:24:48.108Z,6.67
2023-01-05T19:27:14.718Z,7.13
2023-01-05T19:29:42.073Z,8.70
2023-01-05T19:32:08.712Z,5.83
2023-01-05T19:34:35.335Z,8.43
2023-01-05T19:37:05.442Z,6.83
2023-01-05T19:39:32.109Z,7.33
2023-01-05T19:41:58.746Z,6.00
2023-01-05T19:44:25.356Z,8.17
2023-01-05T19:46:53.273Z,7.63
2023-01-05T19:49:24.675Z,7.80
2023-01-05T19:51:51.352Z,7.17
2023-01-05T19:54:18.097Z,6.10
2023-01-05T19:56:44.833Z,6.27
2023-01-05T19:59:22.669Z,5.97
2023-01-05T20:01:49.309Z,7.40
2023-01-05T20:04:16.016Z,6.93
2023-01-05T20:06:44.320Z,4.43
2023-01-05T20:09:18.774Z,5.13
2023-01-05T20:11:48.753Z,7.47
2023-01-05T20:14:22.337Z,6.23
2023-01-05T20:16:55.838Z,7.30
2023-01-05T20:19:23.482Z,6.57
2023-01-05T20:21:50.635Z,5.67
2023-01-05T20:24:19.145Z,7.90
2023-01-05T20:26:46.170Z,5.43
2023-01-05T20:29:13.606Z,4.57
2023-01-05T20:31:45.632Z,7.43
2023-01-05T20:34:15.517Z,5.97
2023-01-05T20:36:42.152Z,5.50
2023-01-05T20:39:09.422Z,7.87
2023-01-05T20:41:38.663Z,5.37
2023-01-05T20:44:05.547Z,5.93
2023-01-05T20:46:34.674Z,5.40
2023-01-05T20:49:01.295Z,4.43
2023-01-05T20:51:27.914Z,4.93
2023-01-05T20:53:55.066Z,4.53
2023-01-05T20:56:23.825Z,5.60
2023-01-05T20:58:51.409Z,6.03
2023-01-05T21:01:18.141Z,6.57
2023-01-05T21:03:44.893Z,5.00
2023-01-05T21:06:12.852Z,4.37
2023-01-05T21:08:39.531Z,6.77
2023-01-05T21:11:06.611Z,6.53
2023-01-05T21:13:33.437Z,11.47
2023-01-05T21:16:04.781Z,5.13
2023-01-05T21:18:32.535Z,17.63
2023-01-05T21:20:59.244Z,9.97
2023-01-05T21:23:26.050Z,10.37
2023-01-05T21:26:06.665Z,6.83
2023-01-05T21:28:37.635Z,7.80
2023-01-05T21:31:09.175Z,9.37
2023-01-05T21:33:36.361Z,8.40
2023-01-05T21:36:06.669Z,8.03
2023-01-05T21:39:01.681Z,7.50
2023-01-05T21:41:40.157Z,4.73
2023-01-05T21:44:07.394Z,5.83
2023-01-05T21:46:34.595Z,18.80
2023-01-05T21:49:01.223Z,7.83
2023-01-05T21:51:46.306Z,7.53
2023-01-05T21:54:31.728Z,9.10
2023-01-05T21:56:58.878Z,8.47
2023-01-05T21:59:25.637Z,13.13
2023-01-05T22:01:52.236Z,10.17
2023-01-05T22:04:18.921Z,6.57
2023-01-05T22:06:45.516Z,6.73
2023-01-05T22:09:12.118Z,6.40
2023-01-05T22:11:38.877Z,6.53
2023-01-05T22:14:05.476Z,8.20
2023-01-05T22:16:32.117Z,6.07
2023-01-05T22:18:58.743Z,8.17
2023-01-05T22:21:25.368Z,9.60
2023-01-05T22:23:51.985Z,7.23
2023-01-05T22:26:19.474Z,7.53
2023-01-05T22:28:47.756Z,7.20
2023-01-05T22:31:19.458Z,6.20
2023-01-05T22:33:49.645Z,9.93
2023-01-05T22:36:17.079Z,9.73
2023-01-05T22:38:44.445Z,10.00
2023-01-05T22:41:12.271Z,6.73
2023-01-05T22:43:39.925Z,7.90
2023-01-05T22:46:08.491Z,7.47
2023-01-05T22:48:36.183Z,7.73
2023-01-05T22:51:13.571Z,7.70
2023-01-05T22:53:40.474Z,9.13
2023-01-05T22:56:09.111Z,8.30
2023-01-05T22:58:35.830Z,6.87
2023-01-05T23:01:29.591Z,8.33
2023-01-05T23:03:57.437Z,7.93
2023-01-05T23:06:24.155Z,7.13
2023-01-05T23:08:50.950Z,10.73
2023-01-05T23:11:31.916Z,8.10
2023-01-05T23:13:59.285Z,10.77
2023-01-05T23:16:26.023Z,9.77
2023-01-05T23:18:52.796Z,9.97
2023-01-05T23:21:20.497Z,13.00
2023-01-05T23:23:47.273Z,10.40
2023-01-05T23:26:14.633Z,8.53
2023-01-05T23:28:42.687Z,8.00
2023-01-05T23:31:11.418Z,10.10
2023-01-05T23:33:38.085Z,8.87
2023-01-05T23:36:05.202Z,6.60
2023-01-05T23:38:32.117Z,11.43
2023-01-05T23:41:00.140Z,8.67
2023-01-05T23:43:28.158Z,9.50
2023-01-05T23:46:04.280Z,7.60
2023-01-05T23:48:31.031Z,9.87
2023-01-05T23:50:58.030Z,7.20
2023-01-05T23:53:25.060Z,9.70
2023-01-05T23:55:51.723Z,9.47
2023-01-05T23:58:18.306Z,6.23
